Time;durP1;ratioP1;P1;durP2;ratioP2;P2;SDS_P1;SDS_P2;PMS_P1;PMS_P2;Temp;Humidity;BMP_temperature;BMP_pressure;BME280_temperature;BME280_humidity;BME280_pressure;Samples;Min_cycle;Max_cycle;Signal;HPM_P1;HPM_P2
2021/12/24 00:00:16;;;;;;;29.65;16.48;;;;;;;7.32;99.56;100373.38;5093849;28;20028;-39
2021/12/24 00:02:42;;;;;;;29.67;15.68;;;;;;;7.35;99.38;100367.91;5093208;28;20029;-39
2021/12/24 00:05:08;;;;;;;26.88;15.93;;;;;;;7.36;99.92;100377.19;5092940;28;20502;-40
2021/12/24 00:07:33;;;;;;;26.15;14.68;;;;;;;7.38;100.00;100377.03;5093010;28;20024;-41
2021/12/24 00:09:58;;;;;;;29.45;16.50;;;;;;;7.45;99.98;100378.72;5093305;28;20027;-40
2021/12/24 00:12:27;;;;;;;26.95;15.50;;;;;;;7.45;99.53;100370.19;5093225;28;20024;-38
2021/12/24 00:14:57;;;;;;;29.02;15.63;;;;;;;7.47;99.73;100369.06;5093485;28;20466;-40
2021/12/24 00:17:28;;;;;;;27.38;15.00;;;;;;;7.50;99.37;100367.09;5093553;28;20382;-40
2021/12/24 00:20:13;;;;;;;24.35;14.30;;;;;;;7.52;99.72;100365.16;5093467;28;20020;-39
2021/12/24 00:36:17;;;;;;;24.25;13.85;;;;;;;7.74;99.77;100361.72;5093936;28;20055;-40
2021/12/24 00:38:43;;;;;;;22.42;13.48;;;;;;;7.78;100.00;100362.16;5095767;28;20020;-40
2021/12/24 00:41:08;;;;;;;23.55;13.32;;;;;;;7.77;100.00;100353.66;5097876;28;20078;-40
2021/12/24 00:43:34;;;;;;;22.50;13.15;;;;;;;7.80;100.00;100361.00;5078835;28;20081;-41
2021/12/24 00:45:59;;;;;;;22.10;12.73;;;;;;;7.83;99.83;100354.69;5096681;28;20028;-39
2021/12/24 00:48:24;;;;;;;21.63;12.65;;;;;;;7.81;99.97;100349.72;5096670;28;20027;-40
2021/12/24 00:51:06;;;;;;;26.48;13.35;;;;;;;7.86;100.00;100350.00;5078463;28;20055;-42
2021/12/24 00:56:05;;;;;;;21.45;11.88;;;;;;;7.92;100.00;100353.63;5096479;28;20086;-38
2021/12/24 00:58:31;;;;;;;20.67;12.05;;;;;;;7.94;100.00;100356.81;5096575;28;20031;-41
2021/12/24 01:00:57;;;;;;;19.27;12.00;;;;;;;8.00;100.00;100353.53;5096314;28;20500;-41
2021/12/24 01:03:22;;;;;;;17.60;11.02;;;;;;;8.01;99.81;100352.53;5096858;28;20052;-39
2021/12/24 01:05:48;;;;;;;19.58;11.85;;;;;;;7.99;100.00;100348.53;5096329;28;20436;-40
2021/12/24 01:08:14;;;;;;;18.90;11.55;;;;;;;8.03;100.00;100354.94;5096242;28;20020;-39
2021/12/24 01:10:50;;;;;;;20.00;11.57;;;;;;;8.03;100.00;100354.94;5096266;28;20031;-40
2021/12/24 01:13:16;;;;;;;18.23;10.93;;;;;;;8.04;100.00;100341.09;5096016;28;20028;-38
2021/12/24 01:15:54;;;;;;;20.33;11.65;;;;;;;8.10;100.00;100346.31;5096436;28;20449;-40
2021/12/24 01:18:50;;;;;;;16.25;10.73;;;;;;;8.14;100.00;100349.31;5096041;28;20053;-38
2021/12/24 01:23:57;;;;;;;18.58;11.30;;;;;;;8.20;100.00;100342.63;5096297;28;20446;-40
2021/12/24 01:40:23;;;;;;;25.98;13.35;;;;;;;8.52;100.00;100344.78;5096223;28;20034;-40
2021/12/24 01:42:49;;;;;;;30.10;14.57;;;;;;;8.60;100.00;100343.84;5095827;28;20059;-39
2021/12/24 01:45:32;;;;;;;32.78;14.38;;;;;;;8.62;100.00;100346.25;5095821;28;20038;-38
2021/12/24 01:48:00;;;;;;;;;;;;;;;8.69;100.00;100347.09;5096520;28;20020;-40
2021/12/24 01:50:30;;;;;;;34.53;14.10;;;;;;;8.67;100.00;100343.94;5095211;28;20003;-40
2021/12/24 01:52:56;;;;;;;34.42;14.35;;;;;;;8.66;100.00;100332.84;5095169;28;20044;-40
2021/12/24 01:55:23;;;;;;;35.33;14.10;;;;;;;8.68;100.00;100341.16;5095361;28;20024;-39
2021/12/24 01:57:50;;;;;;;28.75;13.73;;;;;;;8.76;99.82;100346.19;5095628;28;20513;-39
2021/12/24 02:00:24;;;;;;;34.17;14.30;;;;;;;8.79;100.00;100350.19;5095305;28;20102;-40
2021/12/24 02:02:50;;;;;;;27.80;13.32;;;;;;;8.56;99.70;100298.84;5095161;28;20077;-41
2021/12/24 02:05:17;;;;;;;34.33;14.15;;;;;;;8.86;100.00;100347.66;5095727;28;20035;-39
2021/12/24 02:07:42;;;;;;;28.58;13.30;;;;;;;8.85;100.00;100341.69;5095138;28;20458;-40
2021/12/24 02:10:11;;;;;;;32.63;13.98;;;;;;;8.91;100.00;100347.91;5095104;28;20028;-41
2021/12/24 02:12:38;;;;;;;34.92;14.13;;;;;;;8.94;100.00;100345.72;5095287;28;20056;-41
2021/12/24 02:15:08;;;;;;;29.20;13.38;;;;;;;8.96;99.93;100338.63;5095229;28;20020;-40
2021/12/24 02:28:41;;;;;;;33.55;13.02;;;;;;;9.00;99.69;100339.03;5095554;28;20416;-40
2021/12/24 02:31:10;;;;;;;31.08;12.77;;;;;;;8.99;99.97;100338.25;5094686;28;20024;-40
2021/12/24 02:33:36;;;;;;;25.15;12.38;;;;;;;9.02;99.01;100337.88;5094559;28;20039;-41
2021/12/24 02:36:03;;;;;;;34.05;12.77;;;;;;;9.01;99.14;100344.03;5094568;28;20028;-39
2021/12/24 02:38:28;;;;;;;27.75;11.48;;;;;;;9.06;98.65;100335.72;5094991;28;20051;-39
2021/12/24 02:40:54;;;;;;;32.03;11.52;;;;;;;9.04;98.91;100348.00;5094474;28;20437;-40
2021/12/24 02:43:22;;;;;;;24.92;10.82;;;;;;;9.00;98.93;100342.41;5094907;28;20374;-39
2021/12/24 02:45:49;;;;;;;30.02;12.85;;;;;;;8.81;99.10;100309.56;5094596;28;20062;-40
2021/12/24 02:56:40;;;;;;;33.22;10.25;;;;;;;8.99;98.91;100340.03;5080987;28;20039;-40
2021/12/24 02:59:11;;;;;;;24.33;9.30;;;;;;;9.02;98.39;100343.03;5094390;28;20020;-40
2021/12/24 03:01:39;;;;;;;30.23;10.32;;;;;;;8.92;98.60;100334.00;5094238;28;20024;-38
2021/12/24 03:04:05;;;;;;;24.67;9.50;;;;;;;8.95;98.13;100336.25;5094139;28;20028;-40
2021/12/24 03:06:35;;;;;;;28.42;9.23;;;;;;;8.91;98.33;100332.44;5075825;28;20034;-40
2021/12/24 03:09:01;;;;;;;33.33;9.02;;;;;;;8.88;98.47;100336.19;5075806;28;20028;-39
2021/12/24 03:11:27;;;;;;;26.63;9.75;;;;;;;8.91;98.41;100332.44;5093903;28;20024;-38
2021/12/24 03:13:53;;;;;;;20.80;9.00;;;;;;;8.92;98.02;100344.31;5093942;28;20027;-40
2021/12/24 03:16:19;;;;;;;23.73;9.25;;;;;;;8.89;98.45;100339.53;5094177;28;20367;-39
2021/12/24 03:18:46;;;;;;;22.83;8.98;;;;;;;8.85;98.35;100344.28;5093788;28;20024;-40
2021/12/24 03:21:23;;;;;;;21.05;8.82;;;;;;;8.85;98.60;100344.28;5094041;28;20080;-40
2021/12/24 03:26:34;;;;;;;26.38;9.73;;;;;;;8.86;98.56;100343.31;5094631;28;20032;-39
2021/12/24 03:29:00;;;;;;;20.48;8.88;;;;;;;8.91;98.70;100338.38;5094314;28;20016;-40
2021/12/24 03:31:26;;;;;;;23.95;7.95;;;;;;;8.90;97.67;100336.00;5094385;28;20081;-38
2021/12/24 03:33:53;;;;;;;19.65;8.18;;;;;;;8.91;98.39;100346.09;5093681;28;20024;-42
2021/12/24 03:36:20;;;;;;;23.95;8.35;;;;;;;8.84;98.06;100337.53;5093924;28;20016;-40
2021/12/24 03:38:46;;;;;;;19.55;8.75;;;;;;;8.87;98.28;100344.91;5094170;28;20047;-40
2021/12/24 03:41:11;;;;;;;19.48;8.80;;;;;;;8.85;98.42;100346.84;5093707;28;20125;-40
2021/12/24 03:43:37;;;;;;;25.48;8.20;;;;;;;8.90;98.22;100348.88;5093485;28;20028;-40
2021/12/24 03:46:07;;;;;;;22.20;8.38;;;;;;;8.86;98.00;100345.91;5094069;28;20024;-41
2021/12/24 03:56:44;;;;;;;29.48;9.38;;;;;;;8.89;98.86;100342.94;5094142;28;20043;-40
2021/12/24 03:59:12;;;;;;;27.25;9.10;;;;;;;8.89;98.49;100342.94;5093408;28;20427;-40
2021/12/24 04:01:37;;;;;;;26.30;8.70;;;;;;;8.90;97.90;100349.69;5093328;28;20433;-39
2021/12/24 04:04:03;;;;;;;28.45;9.18;;;;;;;8.89;97.36;100339.53;5093280;28;20076;-39
2021/12/24 04:06:29;;;;;;;24.13;9.13;;;;;;;8.93;97.75;100343.34;5075305;28;20036;-39
2021/12/24 04:08:54;;;;;;;22.25;8.00;;;;;;;8.86;98.48;100335.59;5093299;28;20461;-40
2021/12/24 04:11:19;;;;;;;21.50;8.40;;;;;;;8.82;98.11;100335.13;5093462;28;20488;-40
2021/12/24 04:13:45;;;;;;;31.92;7.93;;;;;;;8.77;98.13;100339.25;5096209;28;20428;-40
2021/12/24 04:16:10;;;;;;;25.45;7.78;;;;;;;8.78;98.62;100335.72;5097584;28;20027;-39
2021/12/24 04:26:56;;;;;;;20.92;7.40;;;;;;;8.77;97.93;100336.69;5097373;28;20043;-40
2021/12/24 04:29:22;;;;;;;30.40;6.97;;;;;;;8.76;98.41;100332.50;5096995;28;20020;-39
2021/12/24 04:31:56;;;;;;;25.00;6.80;;;;;;;8.74;97.87;100335.25;5097047;28;20020;-40
2021/12/24 04:34:26;;;;;;;23.33;6.95;;;;;;;8.76;97.53;100330.72;5097267;28;20081;-40
2021/12/24 04:39:47;;;;;;;20.38;6.15;;;;;;;8.77;97.58;100346.97;5097182;28;20088;-40
2021/12/24 05:01:11;;;;;;;24.90;5.65;;;;;;;8.75;96.95;100352.34;5096479;28;20569;-40
2021/12/24 05:03:47;;;;;;;18.33;5.03;;;;;;;8.69;96.43;100341.94;5097008;28;20110;-40
2021/12/24 05:08:54;;;;;;;23.27;6.47;;;;;;;8.69;96.58;100347.09;5096622;28;20028;-41
2021/12/24 05:11:20;;;;;;;19.08;5.13;;;;;;;8.61;96.57;100345.47;5096745;28;20027;-42
2021/12/24 05:13:47;;;;;;;22.58;5.65;;;;;;;8.65;96.86;100344.09;5095992;28;20020;-40
2021/12/24 05:21:32;;;;;;;17.15;5.18;;;;;;;8.69;96.38;100350.50;5096746;28;20116;-40
2021/12/24 05:21:49;;;;;;;20.88;5.40;;;;;;;8.64;95.96;100352.81;5095803;28;20039;-40
2021/12/24 05:24:20;;;;;;;19.08;5.47;;;;;;;8.66;95.93;100357.78;5094750;28;20028;-41
2021/12/24 05:26:49;;;;;;;17.58;5.22;;;;;;;8.62;96.15;100349.63;5096374;28;20050;-41
2021/12/24 05:29:16;;;;;;;20.30;5.28;;;;;;;8.59;96.52;100342.28;5096283;28;20411;-41
2021/12/24 05:31:42;;;;;;;26.25;5.45;;;;;;;8.61;96.17;100344.69;5095692;28;20110;-41
2021/12/24 05:34:08;;;;;;;22.88;5.30;;;;;;;8.61;95.56;100345.47;5096239;28;20063;-40
2021/12/24 05:36:33;;;;;;;22.25;4.97;;;;;;;8.57;96.05;100345.03;5095783;28;20105;-40
2021/12/24 05:38:59;;;;;;;21.60;5.60;;;;;;;8.57;95.88;100342.47;5095585;28;20107;-40
2021/12/24 05:41:25;;;;;;;21.00;4.75;;;;;;;8.52;96.25;100357.69;5096529;28;20040;-40
2021/12/24 05:43:51;;;;;;;24.83;5.28;;;;;;;8.55;95.73;100351.34;5095440;28;20028;-40
2021/12/24 05:46:16;;;;;;;26.75;5.88;;;;;;;8.52;95.79;100354.31;5095504;28;20027;-39
2021/12/24 05:48:42;;;;;;;28.20;5.18;;;;;;;8.52;95.32;100357.69;5095374;28;20107;-40
2021/12/24 05:51:07;;;;;;;20.98;5.43;;;;;;;8.44;95.93;100357.00;5095279;28;20028;-40
2021/12/24 05:53:33;;;;;;;18.17;4.72;;;;;;;8.51;95.29;100363.78;5095022;28;20071;-41
2021/12/24 05:55:58;;;;;;;20.67;4.88;;;;;;;8.40;95.35;100346.28;5095256;28;20032;-41
2021/12/24 05:58:24;;;;;;;21.00;5.00;;;;;;;8.49;95.40;100370.13;5095205;28;20028;-41
2021/12/24 06:00:50;;;;;;;25.17;4.93;;;;;;;8.47;95.22;100360.00;5095130;28;20069;-39
2021/12/24 06:03:16;;;;;;;19.00;4.55;;;;;;;8.52;95.14;100362.81;5095062;28;20028;-38
2021/12/24 06:05:42;;;;;;;21.05;4.82;;;;;;;8.44;95.71;100362.94;5095673;28;20361;-39
2021/12/24 06:08:08;;;;;;;21.23;4.82;;;;;;;8.41;95.49;100352.22;5077000;28;20031;-41
2021/12/24 06:10:34;;;;;;;18.88;5.13;;;;;;;8.40;95.61;100361.72;5076687;28;20032;-41
2021/12/24 06:13:00;;;;;;;21.40;4.32;;;;;;;8.32;95.88;100366.94;5094855;28;20024;-41
2021/12/24 06:15:26;;;;;;;21.95;4.15;;;;;;;8.31;96.11;100358.41;5095072;28;20034;-41
2021/12/24 06:17:55;;;;;;;19.58;4.78;;;;;;;8.26;96.25;100352.22;5095214;28;20027;-40
2021/12/24 06:20:22;;;;;;;19.75;4.43;;;;;;;8.34;95.74;100355.50;5076691;28;20112;-41
2021/12/24 06:22:47;;;;;;;21.75;3.90;;;;;;;8.33;95.53;100358.22;5094487;28;20035;-39
2021/12/24 06:25:14;;;;;;;21.90;4.50;;;;;;;8.31;95.57;100357.59;5095521;28;20027;-40
2021/12/24 06:27:40;;;;;;;19.70;4.80;;;;;;;8.29;96.19;100362.16;5095176;28;20024;-42
2021/12/24 06:30:07;;;;;;;21.17;4.60;;;;;;;8.33;96.50;100363.38;5094333;28;20047;-41
2021/12/24 06:32:32;;;;;;;27.85;4.55;;;;;;;8.28;95.48;100365.69;5094541;28;20077;-41
2021/12/24 06:34:58;;;;;;;24.02;4.40;;;;;;;8.32;95.83;100366.94;5076229;28;20024;-41
2021/12/24 06:37:23;;;;;;;23.55;4.20;;;;;;;8.30;95.93;100359.38;5094788;28;20058;-40
2021/12/24 06:39:49;;;;;;;20.05;4.38;;;;;;;8.25;95.53;100366.84;5094641;28;20032;-41
2021/12/24 06:42:14;;;;;;;21.85;4.18;;;;;;;8.25;95.98;100368.63;5094258;28;20035;-39
2021/12/24 06:44:40;;;;;;;20.50;4.50;;;;;;;8.30;95.54;100369.69;5094252;28;20020;-42
2021/12/24 06:47:05;;;;;;;19.60;4.03;;;;;;;8.31;95.63;100379.00;5093673;28;20100;-42
2021/12/24 06:49:31;;;;;;;27.90;4.95;;;;;;;8.27;95.49;100377.78;5093647;28;20485;-43
2021/12/24 06:51:56;;;;;;;20.95;4.85;;;;;;;8.25;95.47;100372.00;5093806;28;20113;-42
2021/12/24 06:54:22;;;;;;;22.02;4.63;;;;;;;8.06;95.55;100354.59;5094109;28;20419;-43
2021/12/24 06:56:47;;;;;;;19.83;4.55;;;;;;;8.24;95.22;100377.34;5094722;28;20024;-41
2021/12/24 06:59:13;;;;;;;25.02;5.28;;;;;;;8.10;95.19;100366.88;5093896;28;20024;-41
2021/12/24 07:01:39;;;;;;;22.38;4.80;;;;;;;8.19;95.52;100382.22;5094202;28;20020;-41
2021/12/24 07:04:04;;;;;;;21.40;5.20;;;;;;;8.18;95.11;100390.94;5075725;28;20521;-41
2021/12/24 07:06:30;;;;;;;24.10;5.03;;;;;;;8.22;95.70;100384.44;5092958;28;20141;-41
2021/12/24 07:08:56;;;;;;;24.75;5.97;;;;;;;8.18;95.42;100375.50;5092947;28;20031;-41
2021/12/24 07:11:21;;;;;;;26.52;5.80;;;;;;;8.18;95.40;100381.44;5092981;28;20020;-41
2021/12/24 07:13:46;;;;;;;23.77;4.93;;;;;;;8.18;95.21;100378.06;5091678;28;20034;-41
2021/12/24 07:16:12;;;;;;;24.77;4.55;;;;;;;8.20;95.47;100389.78;5092295;28;20027;-41
2021/12/24 07:18:38;;;;;;;18.63;4.53;;;;;;;8.20;94.68;100386.38;5073081;28;20590;-42
2021/12/24 07:21:04;;;;;;;25.50;5.57;;;;;;;8.18;95.49;100376.28;5093370;28;20103;-42
2021/12/24 07:23:29;;;;;;;17.35;4.53;;;;;;;8.18;95.02;100389.16;5093534;28;20062;-42
2021/12/24 07:25:55;;;;;;;16.45;4.88;;;;;;;8.19;95.46;100387.38;5093652;28;20032;-42
2021/12/24 07:28:20;;;;;;;25.10;5.60;;;;;;;8.12;95.41;100387.31;5093613;28;20024;-41
2021/12/24 07:30:46;;;;;;;20.60;5.10;;;;;;;8.16;95.64;100395.47;5075803;28;20466;-42
2021/12/24 07:33:14;;;;;;;30.15;4.75;;;;;;;8.14;95.19;100390.47;5075687;28;20055;-41
2021/12/24 07:35:41;;;;;;;23.17;4.70;;;;;;;8.16;95.13;100388.53;5075667;28;20024;-41
2021/12/24 07:38:06;;;;;;;20.05;4.80;;;;;;;8.18;95.09;100403.81;5093488;28;20031;-42
2021/12/24 07:40:32;;;;;;;17.45;4.25;;;;;;;8.15;95.36;100394.66;5093305;28;20103;-42
2021/12/24 07:42:57;;;;;;;24.17;4.93;;;;;;;8.21;95.47;100408.59;5093648;28;20358;-42
2021/12/24 07:45:22;;;;;;;23.55;4.93;;;;;;;8.28;95.53;100396.59;5093366;28;20102;-42
2021/12/24 07:48:05;;;;;;;26.70;5.75;;;;;;;8.25;94.40;100394.38;5093111;28;20012;-42
2021/12/24 07:52:57;;;;;;;25.13;5.10;;;;;;;8.18;95.71;100403.81;5093211;28;20052;-42
2021/12/24 07:55:23;;;;;;;25.42;5.40;;;;;;;8.30;95.11;100394.63;5093701;28;20022;-42
2021/12/24 07:57:51;;;;;;;20.58;4.68;;;;;;;8.26;95.39;100390.84;5075027;28;20375;-43
2021/12/24 08:00:17;;;;;;;21.48;4.60;;;;;;;8.28;94.94;100404.31;5074249;28;20024;-43
2021/12/24 08:02:44;;;;;;;22.02;5.65;;;;;;;8.29;94.95;100398.19;5093382;28;20028;-43
2021/12/24 08:05:10;;;;;;;17.85;5.13;;;;;;;8.21;95.00;100400.88;5093501;28;20058;-41
2021/12/24 08:07:35;;;;;;;28.40;5.45;;;;;;;8.35;94.56;100416.28;5093101;28;20055;-41
2021/12/24 08:10:00;;;;;;;27.10;4.78;;;;;;;8.25;95.13;100397.75;5092628;28;20027;-43
2021/12/24 08:12:26;;;;;;;25.48;4.90;;;;;;;8.26;94.98;100407.09;5092931;28;20019;-43
2021/12/24 08:14:51;;;;;;;23.98;5.30;;;;;;;8.32;94.90;100406.34;5093043;28;20031;-42
2021/12/24 08:17:16;;;;;;;22.98;5.03;;;;;;;8.35;94.60;100415.50;5093081;28;20078;-41
2021/12/24 08:19:42;;;;;;;22.48;4.60;;;;;;;8.36;95.11;100405.00;5092778;28;20477;-42
2021/12/24 08:22:07;;;;;;;29.63;5.05;;;;;;;8.39;95.06;100406.44;5093604;28;20354;-43
2021/12/24 08:24:33;;;;;;;22.83;4.15;;;;;;;8.40;94.73;100396.94;5093183;28;20051;-42
2021/12/24 08:26:59;;;;;;;26.38;4.30;;;;;;;8.40;94.92;100405.50;5093079;28;20454;-47
2021/12/24 08:29:25;;;;;;;22.65;4.10;;;;;;;8.45;94.72;100397.19;5074924;28;20545;-43
2021/12/24 08:31:52;;;;;;;25.42;5.10;;;;;;;8.43;94.82;100392.25;5092922;28;20030;-45
2021/12/24 08:34:19;;;;;;;30.52;4.95;;;;;;;8.52;94.66;100378.28;5092921;28;20470;-42
2021/12/24 08:36:46;;;;;;;19.00;4.82;;;;;;;8.61;94.69;100385.88;5058373;28;20024;-44
2021/12/24 08:39:12;;;;;;;24.55;4.57;;;;;;;8.53;94.67;100387.59;5092664;28;20031;-43
2021/12/24 08:41:37;;;;;;;28.52;4.90;;;;;;;8.51;94.71;100384.38;5092255;28;20020;-42
2021/12/24 08:44:03;;;;;;;23.25;4.30;;;;;;;8.46;94.95;100388.50;5092274;28;20466;-42
2021/12/24 08:46:29;;;;;;;22.15;4.38;;;;;;;8.56;94.75;100387.22;5092972;28;20458;-42
2021/12/24 08:48:54;;;;;;;22.67;3.95;;;;;;;8.66;94.01;100375.81;5092567;28;20111;-41
2021/12/24 08:51:20;;;;;;;21.33;4.18;;;;;;;8.68;93.65;100371.28;5074122;28;20075;-42
2021/12/24 08:53:45;;;;;;;21.52;3.92;;;;;;;8.66;93.73;100368.91;5091113;28;20051;-42
2021/12/24 08:56:10;;;;;;;23.13;4.97;;;;;;;8.66;93.81;100381.78;5091778;28;20690;-42
2021/12/24 08:58:37;;;;;;;24.02;4.25;;;;;;;8.64;93.86;100372.66;5074708;28;20036;-42
2021/12/24 09:01:03;;;;;;;23.83;4.30;;;;;;;8.63;94.31;100366.69;5095538;28;20032;-42
2021/12/24 09:03:29;;;;;;;26.00;4.13;;;;;;;8.65;93.92;100382.75;5095562;28;20028;-42
2021/12/24 09:05:54;;;;;;;25.25;4.18;;;;;;;8.69;94.09;100375.44;5095663;28;20039;-43
2021/12/24 09:08:20;;;;;;;22.38;3.83;;;;;;;8.70;93.72;100375.28;5095080;28;20032;-42
2021/12/24 09:10:45;;;;;;;24.33;4.75;;;;;;;8.73;93.58;100369.75;5076480;28;20056;-42
2021/12/24 09:13:11;;;;;;;21.73;4.80;;;;;;;8.76;93.68;100376.31;5093864;28;20537;-41
2021/12/24 09:15:37;;;;;;;27.77;4.90;;;;;;;8.74;93.74;100375.69;5093576;28;20026;-42
2021/12/24 09:18:03;;;;;;;23.98;4.90;;;;;;;8.64;93.22;100385.53;5093934;28;20045;-43
2021/12/24 09:20:35;;;;;;;25.42;4.45;;;;;;;8.62;93.75;100379.75;5075188;28;20040;-42
2021/12/24 09:23:02;;;;;;;20.88;3.85;;;;;;;8.50;94.02;100375.06;5093888;28;20028;-42
2021/12/24 09:25:29;;;;;;;28.92;4.47;;;;;;;8.51;94.48;100381.03;5093400;28;20035;-41
2021/12/24 09:27:58;;;;;;;24.83;4.80;;;;;;;8.51;94.09;100379.25;5092389;28;20093;-41
2021/12/24 09:30:25;;;;;;;23.70;4.05;;;;;;;8.49;94.48;100373.50;5093701;28;20027;-42
2021/12/24 09:32:51;;;;;;;25.20;4.30;;;;;;;8.54;94.06;100378.88;5074902;28;20077;-43
2021/12/24 09:35:17;;;;;;;18.30;4.03;;;;;;;8.47;94.48;100370.28;5094452;28;20085;-41
2021/12/24 09:37:43;;;;;;;27.85;4.35;;;;;;;8.46;94.97;100371.28;5094320;28;20020;-42
2021/12/24 09:40:11;;;;;;;21.73;3.92;;;;;;;8.46;94.85;100375.63;5094213;28;20020;-42
2021/12/24 09:42:37;;;;;;;26.80;3.92;;;;;;;8.46;95.08;100366.13;5094070;28;20385;-42
2021/12/24 09:45:04;;;;;;;21.38;3.75;;;;;;;8.43;95.09;100370.81;5094754;28;20103;-42
2021/12/24 09:47:30;;;;;;;22.90;3.80;;;;;;;8.48;95.49;100369.31;5095408;28;20476;-42
2021/12/24 09:49:55;;;;;;;23.00;4.10;;;;;;;8.48;95.57;100366.72;5095132;28;20024;-41
2021/12/24 09:52:22;;;;;;;27.70;4.50;;;;;;;8.52;96.14;100349.94;5094830;28;20040;-42
2021/12/24 09:54:48;;;;;;;24.20;4.82;;;;;;;8.59;95.78;100350.78;5094518;28;20474;-41
2021/12/24 09:57:14;;;;;;;36.60;9.38;;;;;;;8.56;95.75;100360.66;5095079;28;20156;-42
2021/12/24 09:59:40;;;;;;;24.85;5.82;;;;;;;8.59;95.95;100357.72;5094532;28;20107;-42
2021/12/24 10:02:14;;;;;;;24.92;3.85;;;;;;;8.66;95.20;100342.31;5095309;28;20031;-42
2021/12/24 10:04:40;;;;;;;28.73;3.88;;;;;;;8.92;94.83;100370.09;5093910;28;20017;-41
2021/12/24 10:07:09;;;;;;;25.55;3.83;;;;;;;8.84;94.57;100359.94;5094270;28;20062;-41
2021/12/24 10:09:36;;;;;;;20.67;4.15;;;;;;;8.81;95.25;100369.63;5095042;28;20084;-46
2021/12/24 10:12:05;;;;;;;16.52;3.40;;;;;;;8.81;95.42;100359.31;5076121;28;20089;-41
2021/12/24 10:14:35;;;;;;;29.13;4.90;;;;;;;8.81;95.73;100366.25;5094554;28;20028;-46
2021/12/24 10:17:01;;;;;;;25.80;4.30;;;;;;;8.82;95.28;100367.84;5094458;28;20492;-42
2021/12/24 10:19:27;;;;;;;20.92;3.90;;;;;;;8.74;94.99;100348.16;5094798;28;20028;-43
2021/12/24 10:21:59;;;;;;;26.83;4.65;;;;;;;8.81;95.33;100363.69;5094753;28;20077;-43
2021/12/24 10:24:26;;;;;;;22.60;4.13;;;;;;;8.76;95.60;100366.00;5094584;28;20024;-43
2021/12/24 10:26:54;;;;;;;24.05;4.00;;;;;;;8.93;95.53;100369.91;5094760;28;20128;-42
2021/12/24 10:29:30;;;;;;;27.17;4.53;;;;;;;8.96;95.25;100368.75;5094746;28;20056;-42
2021/12/24 10:31:58;;;;;;;28.83;4.03;;;;;;;8.91;95.19;100364.16;5094883;28;20095;-43
2021/12/24 10:34:29;;;;;;;24.85;4.15;;;;;;;8.94;95.75;100366.34;5094070;28;20028;-42
2021/12/24 10:37:03;;;;;;;25.15;4.47;;;;;;;9.01;94.86;100376.72;5094163;28;20020;-41
2021/12/24 10:39:41;;;;;;;27.60;4.65;;;;;;;9.03;95.05;100361.84;5093913;28;20486;-42
2021/12/24 10:42:12;;;;;;;16.75;3.97;;;;;;;9.02;94.63;100370.59;5093360;28;20422;-41
2021/12/24 10:44:39;;;;;;;32.35;4.30;;;;;;;9.02;95.42;100370.59;5094536;28;20100;-41
2021/12/24 10:47:15;;;;;;;20.27;3.55;;;;;;;9.13;94.19;100371.88;5094715;28;20044;-42
2021/12/24 10:49:59;;;;;;;21.65;3.90;;;;;;;9.14;94.69;100386.34;5094266;28;20023;-41
2021/12/24 10:54:58;;;;;;;24.38;4.32;;;;;;;9.13;95.24;100377.03;5098086;22;20406;-70
2021/12/24 10:57:26;;;;;;;28.98;3.75;;;;;;;9.01;95.07;100361.28;5071936;28;20043;-68
2021/12/24 10:59:56;;;;;;;24.00;5.32;;;;;;;9.14;94.50;100376.03;5072345;28;20086;-68
2021/12/24 11:02:27;;;;;;;19.65;3.30;;;;;;;9.14;94.78;100378.59;5071964;28;20040;-71
2021/12/24 11:04:53;;;;;;;28.95;4.28;;;;;;;9.14;95.04;100379.41;5072229;28;20529;-69
2021/12/24 11:07:42;;;;;;;18.77;3.30;;;;;;;9.09;95.01;100389.50;5055377;28;20430;-69
2021/12/24 11:10:19;;;;;;;14.07;3.00;;;;;;;9.00;95.61;100377.69;5073481;28;20021;-69
2021/12/24 11:12:50;;;;;;;17.42;3.42;;;;;;;9.01;95.76;100376.72;5073371;28;20039;-69
2021/12/24 11:15:40;;;;;;;14.25;3.50;;;;;;;9.03;95.42;100378.16;5054901;28;20024;-69
2021/12/24 11:18:19;;;;;;;20.00;3.70;;;;;;;8.91;95.99;100377.03;5065822;28;20041;-68
2021/12/24 11:20:50;;;;;;;18.30;3.88;;;;;;;8.92;95.83;100373.50;5073971;28;20020;-68
2021/12/24 11:23:17;;;;;;;15.23;3.55;;;;;;;8.97;96.35;100370.34;5073150;28;20098;-69
2021/12/24 11:25:49;;;;;;;18.35;3.97;;;;;;;9.04;95.49;100369.41;5073439;28;20086;-71
2021/12/24 11:28:16;;;;;;;20.30;3.53;;;;;;;9.04;95.47;100364.25;5055427;28;20071;-68
2021/12/24 11:30:45;;;;;;;12.73;3.95;;;;;;;9.19;95.15;100358.22;5055373;28;20029;-70
2021/12/24 11:33:17;;;;;;;15.68;3.50;;;;;;;9.12;95.16;100360.75;5055392;28;20021;-69
2021/12/24 11:35:48;;;;;;;12.63;3.85;;;;;;;9.24;95.06;100361.03;5055467;28;20031;-69
2021/12/24 11:38:17;;;;;;;14.70;3.30;;;;;;;9.18;95.10;100369.53;5054977;28;20064;-70
2021/12/24 11:40:44;;;;;;;14.35;3.45;;;;;;;9.10;95.12;100360.16;5056054;28;20024;-69
2021/12/24 11:43:10;;;;;;;16.75;3.40;;;;;;;9.00;95.37;100365.59;5073301;28;20029;-67
2021/12/24 11:45:35;;;;;;;12.98;4.07;;;;;;;8.96;95.98;100359.25;5055284;28;20021;-67
2021/12/24 11:48:02;;;;;;;19.50;3.88;;;;;;;8.93;95.79;100357.03;5074120;28;20028;-70
2021/12/24 11:50:28;;;;;;;15.18;3.40;;;;;;;9.11;95.64;100358.34;5074346;28;20055;-68
2021/12/24 11:52:57;;;;;;;11.82;3.00;;;;;;;9.13;95.52;100357.19;5079459;28;20015;-69
2021/12/24 11:55:24;;;;;;;12.75;3.08;;;;;;;9.16;95.66;100359.38;5093243;28;20052;-66
2021/12/24 11:57:55;;;;;;;11.32;2.90;;;;;;;9.08;95.36;100361.31;5093551;28;20055;-67
2021/12/24 12:00:37;;;;;;;13.02;3.10;;;;;;;9.08;96.00;100354.38;5093702;28;20020;-67
2021/12/24 12:03:02;;;;;;;15.85;3.20;;;;;;;8.97;95.04;100360.81;5093003;28;20046;-67
2021/12/24 12:05:32;;;;;;;11.27;3.83;;;;;;;8.75;95.56;100326.56;5092595;28;20020;-67
2021/12/24 12:08:22;;;;;;;10.80;3.20;;;;;;;9.05;95.80;100365.06;5074904;28;20028;-67
2021/12/24 12:10:52;;;;;;;10.98;3.33;;;;;;;9.14;95.32;100357.97;5075051;28;20063;-67
2021/12/24 12:13:48;;;;;;;14.90;3.33;;;;;;;9.13;95.74;100364.13;5075533;28;20027;-67
2021/12/24 12:16:21;;;;;;;12.73;3.47;;;;;;;9.19;95.03;100363.38;5093790;28;20035;-66
2021/12/24 12:19:01;;;;;;;14.43;3.25;;;;;;;9.15;95.22;100362.97;5093227;28;20493;-67
2021/12/24 12:21:37;;;;;;;9.65;2.72;;;;;;;9.10;95.28;100356.78;5094049;28;20024;-67
2021/12/24 12:26:45;;;;;;;9.15;2.90;;;;;;;8.86;95.74;100325.28;5093933;28;20031;-66
2021/12/24 12:29:32;;;;;;;9.15;2.60;;;;;;;9.06;95.56;100355.53;5093081;28;20082;-68
2021/12/24 12:32:25;;;;;;;8.85;3.03;;;;;;;9.10;95.70;100364.50;5093491;28;20024;-66
2021/12/24 12:35:00;;;;;;;12.20;3.15;;;;;;;9.02;95.72;100373.16;5096663;28;20031;-67
2021/12/24 12:37:30;;;;;;;8.98;2.90;;;;;;;9.14;96.46;100370.88;5096815;28;20128;-67
2021/12/24 12:40:25;;;;;;;7.05;2.63;;;;;;;9.14;95.50;100369.09;5096896;28;20471;-67
2021/12/24 12:42:56;;;;;;;9.45;3.58;;;;;;;9.00;95.68;100375.91;5095433;28;20458;-68
2021/12/24 12:45:45;;;;;;;7.75;3.33;;;;;;;9.07;95.64;100362.31;5095546;28;20027;-69
2021/12/24 12:48:22;;;;;;;9.63;3.20;;;;;;;9.11;95.61;100353.19;5083031;28;20131;-67
2021/12/24 12:50:54;;;;;;;8.65;3.30;;;;;;;8.90;95.28;100325.69;5095569;28;20020;-67
2021/12/24 12:53:22;;;;;;;9.30;3.53;;;;;;;8.93;95.38;100348.50;5079740;28;20032;-74
2021/12/24 12:56:14;;;;;;;8.43;3.53;;;;;;;8.93;95.24;100353.66;5081727;28;20382;-67
2021/12/24 12:58:45;;;;;;;10.88;3.95;;;;;;;9.07;94.99;100370.81;5079238;28;20478;-68
2021/12/24 13:01:20;;;;;;;8.98;3.70;;;;;;;9.07;95.14;100363.09;5095815;28;20028;-67
2021/12/24 13:04:10;;;;;;;11.05;3.63;;;;;;;9.19;94.73;100365.97;5078154;28;20020;-68
2021/12/24 13:06:36;;;;;;;13.98;4.07;;;;;;;9.23;94.76;100362.00;5088873;28;20028;-67
2021/12/24 13:09:08;;;;;;;12.05;3.60;;;;;;;9.11;94.72;100368.66;5096346;28;20031;-68
2021/12/24 13:11:41;;;;;;;11.70;4.20;;;;;;;9.13;93.90;100364.13;5078252;28;20032;-66
2021/12/24 13:14:07;;;;;;;12.85;4.28;;;;;;;9.23;93.96;100355.06;5078108;28;20539;-67
2021/12/24 13:16:47;;;;;;;10.13;3.58;;;;;;;9.16;94.54;100350.88;5096665;28;20020;-67